Time;durP1;ratioP1;P1;durP2;ratioP2;P2;SDS_P1;SDS_P2;PMS_P1;PMS_P2;Temp;Humidity;BMP_temperature;BMP_pressure;BME280_temperature;BME280_humidity;BME280_pressure;Samples;Min_cycle;Max_cycle;Signal;HPM_P1;HPM_P2
2023/03/20 00:00:36;;;;;;;1.80;1.50;;;19.30;66.70;;;;;;5111684;28;20192;-47
2023/03/20 00:03:09;;;;;;;1.60;1.50;;;19.30;66.70;;;;;;5112855;28;20212;-47
2023/03/20 00:05:40;;;;;;;2.13;1.53;;;19.30;66.70;;;;;;5071068;28;20212;-47
2023/03/20 00:08:11;;;;;;;3.37;1.40;;;19.30;66.70;;;;;;5081563;28;20201;-47
2023/03/20 00:10:47;;;;;;;2.70;1.57;;;19.30;66.80;;;;;;5105805;28;20626;-47
2023/03/20 00:13:27;;;;;;;1.40;1.30;;;19.30;66.80;;;;;;5093101;28;20222;-46
2023/03/20 00:16:10;;;;;;;2.60;1.53;;;19.30;66.70;;;;;;5094953;28;20326;-47
2023/03/20 00:18:41;;;;;;;2.27;1.63;;;19.20;66.70;;;;;;5095412;28;20245;-47
2023/03/20 00:21:22;;;;;;;1.53;1.43;;;19.20;66.60;;;;;;5112032;28;20761;-47
2023/03/20 00:23:49;;;;;;;3.53;1.43;;;19.20;66.60;;;;;;5105918;28;20201;-46
2023/03/20 00:26:20;;;;;;;1.33;1.20;;;19.20;66.60;;;;;;5107519;27;20231;-47
2023/03/20 00:28:52;;;;;;;1.83;1.40;;;19.20;66.50;;;;;;5091079;28;20215;-47
2023/03/20 00:31:47;;;;;;;1.30;1.20;;;19.20;66.50;;;;;;5081127;28;20241;-46
2023/03/20 00:34:20;;;;;;;1.20;1.07;;;19.20;66.40;;;;;;5111465;27;20192;-47
2023/03/20 00:36:52;;;;;;;1.93;1.70;;;19.10;66.40;;;;;;5094129;28;20200;-47
2023/03/20 00:39:26;;;;;;;1.23;1.10;;;19.10;66.30;;;;;;5090702;28;20215;-46
2023/03/20 00:42:02;;;;;;;2.07;1.20;;;19.10;66.40;;;;;;5085422;28;20674;-47
2023/03/20 00:44:58;;;;;;;1.80;1.17;;;19.10;66.30;;;;;;5099929;27;20281;-46
2023/03/20 00:47:35;;;;;;;1.63;0.97;;;19.10;66.30;;;;;;5110628;28;20213;-47
2023/03/20 00:50:20;;;;;;;1.10;0.93;;;19.10;66.30;;;;;;5091861;28;20223;-46
2023/03/20 00:52:55;;;;;;;1.43;1.17;;;19.10;66.10;;;;;;5094010;28;20610;-46
2023/03/20 00:55:30;;;;;;;1.20;1.10;;;19.10;66.10;;;;;;5104545;27;20187;-47
2023/03/20 00:58:02;;;;;;;1.83;1.30;;;19.10;66.10;;;;;;5089509;28;20204;-47
2023/03/20 01:00:42;;;;;;;1.93;1.40;;;19.10;66.10;;;;;;5089812;28;20245;-47
2023/03/20 01:03:17;;;;;;;1.37;1.23;;;19.10;66.10;;;;;;5104873;28;20193;-46
2023/03/20 01:05:51;;;;;;;1.20;1.10;;;19.00;66.00;;;;;;5097158;28;20223;-47
2023/03/20 01:08:22;;;;;;;1.40;1.13;;;19.00;66.00;;;;;;5096444;28;20201;-47
2023/03/20 01:10:59;;;;;;;2.17;1.23;;;19.00;66.00;;;;;;5112417;27;20200;-46
2023/03/20 01:13:33;;;;;;;1.63;1.33;;;19.00;65.80;;;;;;5090761;28;20191;-47
2023/03/20 01:16:14;;;;;;;1.37;1.20;;;19.00;65.90;;;;;;5090471;28;20271;-47
2023/03/20 01:18:46;;;;;;;2.10;1.23;;;19.00;65.80;;;;;;5104699;28;20274;-47
2023/03/20 01:21:17;;;;;;;1.20;1.07;;;19.00;65.80;;;;;;5109652;28;20208;-47
2023/03/20 01:23:49;;;;;;;1.67;1.17;;;19.00;65.70;;;;;;5103886;28;20941;-46
2023/03/20 01:26:31;;;;;;;1.03;0.93;;;19.00;65.70;;;;;;5109754;27;20239;-46
2023/03/20 01:29:24;;;;;;;1.43;1.17;;;18.90;65.60;;;;;;5081776;28;20189;-46
2023/03/20 01:31:56;;;;;;;1.50;1.20;;;19.00;65.70;;;;;;5063449;28;20681;-47
2023/03/20 01:34:26;;;;;;;2.30;1.20;;;19.00;65.60;;;;;;5107771;28;20195;-47
2023/03/20 01:37:09;;;;;;;1.60;1.07;;;18.90;65.50;;;;;;5109661;28;20196;-46
2023/03/20 01:39:38;;;;;;;1.33;1.03;;;18.90;65.50;;;;;;5105522;28;20208;-46
2023/03/20 01:42:24;;;;;;;1.60;1.23;;;18.90;65.50;;;;;;5093921;28;20200;-46
2023/03/20 01:44:53;;;;;;;1.27;0.97;;;18.90;65.50;;;;;;5108550;28;20203;-46
2023/03/20 01:47:26;;;;;;;1.53;1.20;;;18.90;65.50;;;;;;5092283;28;20194;-47
2023/03/20 01:50:21;;;;;;;1.23;1.13;;;18.90;65.40;;;;;;5083107;28;21177;-46
2023/03/20 01:52:53;;;;;;;1.17;1.07;;;18.90;65.30;;;;;;5109950;28;20218;-46
2023/03/20 01:55:24;;;;;;;1.23;1.13;;;18.80;65.30;;;;;;5094993;28;20189;-46
2023/03/20 01:58:00;;;;;;;1.30;1.10;;;18.80;65.20;;;;;;5077975;28;20555;-46
2023/03/20 02:00:47;;;;;;;1.37;0.97;;;18.80;65.20;;;;;;5094205;28;20276;-46
2023/03/20 02:03:21;;;;;;;1.73;1.40;;;18.90;65.20;;;;;;5073762;28;20192;-47
2023/03/20 02:05:54;;;;;;;1.17;1.07;;;18.80;65.10;;;;;;5088845;28;20207;-47
2023/03/20 02:08:30;;;;;;;2.03;1.27;;;18.90;65.10;;;;;;5095725;27;20912;-47
2023/03/20 02:11:00;;;;;;;2.50;1.50;;;18.80;65.00;;;;;;5083395;28;20572;-47
2023/03/20 02:13:31;;;;;;;1.57;1.13;;;18.80;65.00;;;;;;5075098;28;20219;-47
2023/03/20 02:16:08;;;;;;;1.47;1.10;;;18.80;65.00;;;;;;5085681;28;20283;-47
2023/03/20 02:18:41;;;;;;;1.90;1.00;;;18.80;65.00;;;;;;5092589;28;20192;-47
2023/03/20 02:21:40;;;;;;;2.67;1.50;;;18.80;64.90;;;;;;5088349;28;20198;-47
2023/03/20 02:24:33;;;;;;;1.67;1.47;;;18.80;64.90;;;;;;5100479;28;20182;-47
2023/03/20 02:27:19;;;;;;;2.13;1.10;;;18.70;64.80;;;;;;5105220;28;20240;-47
2023/03/20 02:30:10;;;;;;;1.67;1.20;;;18.80;64.80;;;;;;5098418;27;20222;-47
2023/03/20 02:33:02;;;;;;;3.50;1.10;;;18.70;64.60;;;;;;5106849;28;20196;-49
2023/03/20 02:36:03;;;;;;;1.50;1.13;;;18.70;64.60;;;;;;5108556;27;20792;-47
2023/03/20 02:39:00;;;;;;;1.10;1.00;;;18.70;65.20;;;;;;5110408;27;20200;-47
2023/03/20 02:42:21;;;;;;;1.17;1.07;;;18.70;64.60;;;;;;5117921;27;20274;-47
2023/03/20 02:45:21;;;;;;;1.43;1.23;;;18.70;64.50;;;;;;5104236;28;20197;-47
2023/03/20 02:48:17;;;;;;;1.80;1.33;;;18.70;64.40;;;;;;5105004;28;20196;-47
2023/03/20 02:51:13;;;;;;;1.30;1.20;;;18.70;64.40;;;;;;5099375;28;20211;-46
2023/03/20 02:54:04;;;;;;;1.47;1.30;;;18.70;64.30;;;;;;5118163;27;20211;-46
2023/03/20 02:56:53;;;;;;;1.57;1.20;;;18.60;64.30;;;;;;5108168;27;20200;-47
2023/03/20 02:59:42;;;;;;;1.40;1.17;;;18.60;64.20;;;;;;5091906;28;20207;-46
2023/03/20 03:02:19;;;;;;;1.30;1.10;;;18.60;64.10;;;;;;5111558;27;20208;-47
2023/03/20 03:04:56;;;;;;;1.30;1.20;;;18.60;64.10;;;;;;5091790;28;20192;-47
2023/03/20 03:07:30;;;;;;;1.40;1.30;;;18.60;64.00;;;;;;5096868;27;20199;-46
2023/03/20 03:10:35;;;;;;;1.57;1.27;;;18.60;64.00;;;;;;5097498;27;20229;-46
2023/03/20 03:13:14;;;;;;;1.70;1.60;;;18.60;63.90;;;;;;5103369;28;20200;-47
2023/03/20 03:15:55;;;;;;;1.73;1.40;;;18.60;63.80;;;;;;5085356;27;20207;-47
2023/03/20 03:18:33;;;;;;;1.50;1.40;;;18.60;63.80;;;;;;5100692;28;20200;-47
2023/03/20 03:21:09;;;;;;;1.80;1.30;;;18.60;63.60;;;;;;5109125;28;20188;-47
2023/03/20 03:23:55;;;;;;;3.40;2.00;;;18.60;63.60;;;;;;5099969;27;20246;-47
2023/03/20 03:26:30;;;;;;;3.60;1.90;;;18.60;63.60;;;;;;5108607;27;20301;-47
2023/03/20 03:29:15;;;;;;;1.90;1.70;;;18.60;63.50;;;;;;5092308;28;20207;-47
2023/03/20 03:31:57;;;;;;;1.83;1.73;;;18.60;63.40;;;;;;5098727;28;20596;-47
2023/03/20 03:34:30;;;;;;;2.00;1.83;;;18.60;63.40;;;;;;5105261;28;20196;-46
2023/03/20 03:37:43;;;;;;;1.87;1.60;;;18.50;63.30;;;;;;5083780;28;20189;-46
2023/03/20 03:40:19;;;;;;;1.90;1.63;;;18.60;63.20;;;;;;5057184;28;20192;-46
2023/03/20 03:43:06;;;;;;;2.40;1.70;;;18.50;63.10;;;;;;5108985;28;20193;-47
2023/03/20 03:45:50;;;;;;;2.90;1.77;;;18.50;63.10;;;;;;5118448;27;20839;-47
2023/03/20 03:48:24;;;;;;;2.17;1.50;;;18.50;63.00;;;;;;5091900;28;20214;-47
2023/03/20 03:50:58;;;;;;;2.33;1.90;;;18.50;63.00;;;;;;5072744;28;20203;-46
2023/03/20 03:53:41;;;;;;;2.83;1.87;;;18.50;63.00;;;;;;5079537;28;20205;-46
2023/03/20 03:56:15;;;;;;;1.97;1.63;;;18.50;62.80;;;;;;5081907;28;20199;-46
2023/03/20 03:58:51;;;;;;;2.40;1.80;;;18.50;62.80;;;;;;5095198;28;20199;-46
2023/03/20 04:01:29;;;;;;;2.67;1.80;;;18.50;62.80;;;;;;5075490;28;20207;-47
2023/03/20 04:04:03;;;;;;;2.27;2.07;;;18.50;62.70;;;;;;5097829;28;20236;-46
2023/03/20 04:06:34;;;;;;;2.70;2.40;;;18.50;62.70;;;;;;5112859;28;20228;-47
2023/03/20 04:09:03;;;;;;;2.43;1.90;;;18.40;62.60;;;;;;5107060;28;20180;-47
2023/03/20 04:11:34;;;;;;;2.43;1.87;;;18.50;62.60;;;;;;5106940;28;20677;-46
2023/03/20 04:14:06;;;;;;;2.07;1.60;;;18.50;62.50;;;;;;5093421;28;20209;-46
2023/03/20 04:16:36;;;;;;;2.93;1.83;;;18.40;62.50;;;;;;5104029;28;20261;-47
2023/03/20 04:19:09;;;;;;;3.93;2.20;;;18.50;62.40;;;;;;5101587;28;20199;-46
2023/03/20 04:21:37;;;;;;;2.80;1.90;;;18.40;62.40;;;;;;5101066;28;20236;-46
2023/03/20 04:24:08;;;;;;;3.13;2.53;;;18.40;62.30;;;;;;5099790;28;20200;-46
2023/03/20 04:26:45;;;;;;;3.37;2.50;;;18.40;62.30;;;;;;5105322;28;20716;-47
2023/03/20 04:29:14;;;;;;;2.73;2.10;;;18.40;62.30;;;;;;5102695;28;20189;-46
2023/03/20 04:31:44;;;;;;;3.20;2.10;;;18.40;62.30;;;;;;5094783;28;20228;-47
2023/03/20 04:34:16;;;;;;;2.87;2.10;;;18.40;62.30;;;;;;5108235;28;20196;-47
2023/03/20 04:36:48;;;;;;;2.57;2.37;;;18.40;62.20;;;;;;5111166;28;20213;-46
2023/03/20 04:39:21;;;;;;;2.17;1.97;;;18.40;62.10;;;;;;5104131;28;20212;-47
2023/03/20 04:41:51;;;;;;;2.33;2.10;;;18.40;62.10;;;;;;5087829;28;20687;-46
2023/03/20 04:44:19;;;;;;;3.00;2.30;;;18.40;62.10;;;;;;5070971;28;20203;-47
2023/03/20 04:46:50;;;;;;;2.63;2.13;;;18.30;62.00;;;;;;5099668;28;20692;-46
2023/03/20 04:49:20;;;;;;;2.97;2.13;;;18.40;62.00;;;;;;5107972;28;20585;-47
2023/03/20 04:51:51;;;;;;;5.23;2.20;;;18.40;62.00;;;;;;5111019;28;20617;-46
2023/03/20 04:54:20;;;;;;;3.20;2.57;;;18.40;62.00;;;;;;5074059;28;20188;-46
2023/03/20 04:56:53;;;;;;;2.50;2.10;;;18.30;61.90;;;;;;5092514;28;20212;-46
2023/03/20 04:59:22;;;;;;;2.17;1.97;;;18.30;61.80;;;;;;5101619;28;20215;-47
2023/03/20 05:01:51;;;;;;;3.47;2.17;;;18.30;61.70;;;;;;5102435;28;20204;-46
2023/03/20 05:04:21;;;;;;;2.37;2.13;;;18.30;61.80;;;;;;5092304;28;20196;-47
2023/03/20 05:06:52;;;;;;;3.63;2.20;;;18.30;61.60;;;;;;5110930;27;20224;-46
2023/03/20 05:09:24;;;;;;;2.27;2.00;;;18.30;61.60;;;;;;5111981;28;20609;-47
2023/03/20 05:11:56;;;;;;;2.70;2.07;;;18.30;61.50;;;;;;5089814;27;20269;-46
2023/03/20 05:14:27;;;;;;;1.93;1.70;;;18.30;61.50;;;;;;5109021;28;20239;-47
2023/03/20 05:16:58;;;;;;;3.40;1.93;;;18.30;61.50;;;;;;5110372;27;20201;-47
2023/03/20 05:19:30;;;;;;;2.17;1.97;;;18.30;61.50;;;;;;5105875;28;20200;-47
2023/03/20 05:22:00;;;;;;;3.33;2.20;;;18.30;61.50;;;;;;5106215;27;20193;-46
2023/03/20 05:24:31;;;;;;;2.77;2.57;;;18.30;61.40;;;;;;5102245;28;20263;-47
2023/03/20 05:27:04;;;;;;;2.83;2.20;;;18.30;61.40;;;;;;5092544;28;20539;-46
2023/03/20 05:29:34;;;;;;;3.10;2.00;;;18.30;61.40;;;;;;5083370;28;20219;-47
2023/03/20 05:32:04;;;;;;;2.33;2.13;;;18.30;61.40;;;;;;5099337;28;20192;-46
2023/03/20 05:34:34;;;;;;;2.20;2.00;;;18.20;61.30;;;;;;5089970;28;20204;-46
2023/03/20 05:37:06;;;;;;;2.13;1.93;;;18.20;61.30;;;;;;5089791;28;20193;-46
2023/03/20 05:39:38;;;;;;;2.63;1.90;;;18.20;61.20;;;;;;5088009;28;20216;-46
2023/03/20 05:42:15;;;;;;;2.67;2.00;;;18.20;61.20;;;;;;5086373;28;20201;-46
2023/03/20 05:44:45;;;;;;;2.17;1.80;;;18.20;61.20;;;;;;5077799;28;20201;-46
2023/03/20 05:47:16;;;;;;;3.77;2.17;;;18.20;61.20;;;;;;5090684;28;20244;-46
2023/03/20 05:49:53;;;;;;;2.80;2.00;;;18.20;61.10;;;;;;5086064;28;20521;-46
2023/03/20 05:52:25;;;;;;;2.13;1.87;;;18.20;61.10;;;;;;5087135;28;20193;-46
2023/03/20 05:54:56;;;;;;;2.03;1.90;;;18.20;61.10;;;;;;5089542;28;20196;-46
2023/03/20 05:57:33;;;;;;;1.93;1.80;;;18.20;61.00;;;;;;5085633;28;20200;-46
2023/03/20 06:00:05;;;;;;;2.10;1.90;;;18.20;61.10;;;;;;5084858;28;20200;-47
2023/03/20 06:02:40;;;;;;;4.53;2.27;;;18.20;60.90;;;;;;5075119;28;20229;-46
2023/03/20 06:05:18;;;;;;;3.23;2.13;;;18.20;60.90;;;;;;5085283;28;20200;-45
2023/03/20 06:07:49;;;;;;;2.30;1.63;;;18.20;60.90;;;;;;5081829;28;20700;-46
2023/03/20 06:10:20;;;;;;;2.43;1.90;;;18.20;60.80;;;;;;5090073;28;20185;-46
2023/03/20 06:12:59;;;;;;;4.13;2.43;;;18.20;60.80;;;;;;5089744;28;20190;-46
2023/03/20 06:15:42;;;;;;;2.73;1.90;;;18.20;60.80;;;;;;5057566;28;20252;-46
2023/03/20 06:18:13;;;;;;;2.50;2.07;;;18.20;60.80;;;;;;5069268;28;20247;-46
2023/03/20 06:20:45;;;;;;;5.13;2.27;;;18.10;60.70;;;;;;5082399;28;20189;-46
2023/03/20 06:23:16;;;;;;;3.37;2.10;;;18.20;61.10;;;;;;5070129;28;20630;-46
2023/03/20 06:25:47;;;;;;;3.67;2.10;;;18.20;61.10;;;;;;5077564;28;20197;-46
2023/03/20 06:28:20;;;;;;;5.43;2.43;;;18.20;61.30;;;;;;5102270;28;20220;-46
2023/03/20 06:30:53;;;;;;;3.83;2.23;;;18.30;61.30;;;;;;5100331;28;20757;-46
2023/03/20 06:33:27;;;;;;;7.70;2.50;;;18.30;61.10;;;;;;5104226;27;20225;-47
2023/03/20 06:35:59;;;;;;;3.77;2.60;;;18.40;61.10;;;;;;5106188;28;20196;-47
2023/03/20 06:38:32;;;;;;;4.20;2.43;;;18.40;60.90;;;;;;5112493;27;20208;-47
2023/03/20 06:41:02;;;;;;;3.57;2.30;;;18.50;60.70;;;;;;5114176;27;20189;-47
2023/03/20 06:43:36;;;;;;;3.80;2.20;;;18.60;60.40;;;;;;5109901;27;20646;-46
2023/03/20 06:46:07;;;;;;;3.67;2.37;;;18.60;60.30;;;;;;5108353;28;20189;-46
2023/03/20 06:48:40;;;;;;;5.80;2.00;;;18.70;60.20;;;;;;5104244;27;20211;-46
2023/03/20 06:51:15;;;;;;;2.50;2.10;;;18.70;60.00;;;;;;5084722;28;20209;-46
2023/03/20 06:53:45;;;;;;;4.00;2.57;;;18.80;59.90;;;;;;5094077;27;20208;-46
2023/03/20 06:56:17;;;;;;;3.07;2.50;;;18.80;59.70;;;;;;5104284;28;20228;-46
2023/03/20 06:58:47;;;;;;;2.53;2.10;;;18.80;59.50;;;;;;5109196;27;20187;-46
2023/03/20 07:01:19;;;;;;;4.27;2.40;;;18.80;59.30;;;;;;5106469;28;20221;-46
2023/03/20 07:03:49;;;;;;;3.43;2.30;;;18.80;59.30;;;;;;5094943;27;20234;-46
2023/03/20 07:06:35;;;;;;;3.90;2.17;;;18.80;59.10;;;;;;5110171;27;20224;-46
2023/03/20 07:09:04;;;;;;;5.87;2.40;;;18.80;59.00;;;;;;5107707;28;20234;-46
2023/03/20 07:11:37;;;;;;;2.57;2.17;;;18.80;59.00;;;;;;5091176;28;20207;-46
2023/03/20 07:14:07;;;;;;;4.20;1.90;;;18.80;59.00;;;;;;5105599;28;20227;-46
2023/03/20 07:16:38;;;;;;;6.53;1.97;;;18.80;58.90;;;;;;5107074;28;20192;-46
2023/03/20 07:19:10;;;;;;;3.03;2.03;;;18.80;58.80;;;;;;5108025;27;20247;-46
2023/03/20 07:21:39;;;;;;;2.53;2.03;;;18.80;58.80;;;;;;5095837;28;20201;-46
2023/03/20 07:24:10;;;;;;;3.00;2.30;;;18.80;58.70;;;;;;5108646;27;20204;-46
2023/03/20 07:26:41;;;;;;;4.07;2.27;;;18.80;58.60;;;;;;5104873;28;20272;-47
2023/03/20 07:29:18;;;;;;;2.90;2.30;;;18.80;58.60;;;;;;5102106;27;20196;-46
2023/03/20 07:31:49;;;;;;;3.43;2.07;;;18.90;58.60;;;;;;5100007;28;20208;-46
2023/03/20 07:34:21;;;;;;;3.50;2.50;;;18.80;58.50;;;;;;5095496;28;20664;-46
2023/03/20 07:36:52;;;;;;;3.83;2.17;;;18.80;58.60;;;;;;5107907;28;20206;-46
2023/03/20 07:39:29;;;;;;;2.77;2.03;;;18.80;58.70;;;;;;5094364;27;20216;-46
2023/03/20 07:41:57;;;;;;;3.60;1.97;;;18.80;58.80;;;;;;5100593;28;20188;-46
2023/03/20 07:44:27;;;;;;;6.40;2.50;;;18.80;59.00;;;;;;5107035;27;20675;-47
2023/03/20 07:46:58;;;;;;;7.03;2.23;;;18.80;59.70;;;;;;5102771;28;20212;-47
2023/03/20 07:49:29;;;;;;;5.20;2.23;;;18.90;60.00;;;;;;5110756;27;20208;-46
2023/03/20 07:52:05;;;;;;;4.73;2.13;;;18.90;59.90;;;;;;5108272;28;20188;-47
2023/03/20 07:54:40;;;;;;;4.27;2.17;;;18.90;59.90;;;;;;5096419;28;20402;-47
2023/03/20 07:57:12;;;;;;;4.77;2.43;;;19.00;60.00;;;;;;5105635;28;20204;-47
2023/03/20 07:59:43;;;;;;;4.13;2.30;;;19.00;59.80;;;;;;5096488;28;20576;-48
2023/03/20 08:02:20;;;;;;;5.20;2.30;;;19.10;59.70;;;;;;5103378;28;20235;-47
2023/03/20 08:04:52;;;;;;;3.90;2.63;;;19.10;59.50;;;;;;5114405;27;20552;-47
2023/03/20 08:07:22;;;;;;;3.23;2.30;;;19.10;59.50;;;;;;5087852;28;20901;-46
2023/03/20 08:09:51;;;;;;;3.93;2.30;;;19.20;59.20;;;;;;5085217;28;20208;-46
2023/03/20 08:12:23;;;;;;;4.10;2.20;;;19.20;58.90;;;;;;5108324;28;20552;-46
2023/03/20 08:14:54;;;;;;;3.67;2.43;;;19.30;59.00;;;;;;5098997;28;20276;-46
2023/03/20 08:17:25;;;;;;;5.23;2.90;;;19.30;58.70;;;;;;5106106;28;20185;-46
2023/03/20 08:19:55;;;;;;;3.80;2.30;;;19.40;58.60;;;;;;5102783;28;20347;-52
2023/03/20 08:22:23;;;;;;;3.63;2.30;;;19.40;58.40;;;;;;5104503;28;20209;-46
2023/03/20 08:24:52;;;;;;;5.10;2.57;;;19.40;58.30;;;;;;5085982;28;20257;-47
2023/03/20 08:27:23;;;;;;;3.80;2.17;;;19.40;58.20;;;;;;5097749;28;20228;-46
2023/03/20 08:30:07;;;;;;;6.00;2.47;;;19.40;58.00;;;;;;5108676;28;20287;-46
2023/03/20 08:32:38;;;;;;;3.07;2.17;;;19.50;58.20;;;;;;5105919;28;20542;-46
2023/03/20 08:35:10;;;;;;;3.67;1.97;;;19.50;58.60;;;;;;5116788;28;20189;-46
2023/03/20 08:38:00;;;;;;;3.87;2.43;;;19.50;58.20;;;;;;5087871;28;20204;-47
2023/03/20 08:40:29;;;;;;;2.77;2.20;;;19.50;58.20;;;;;;5076528;28;20214;-46
2023/03/20 08:43:00;;;;;;;3.63;2.23;;;19.60;58.10;;;;;;5110309;28;20195;-46
2023/03/20 08:45:29;;;;;;;4.17;2.47;;;19.60;58.10;;;;;;5106280;28;20192;-46
2023/03/20 08:47:58;;;;;;;3.63;2.17;;;19.60;57.80;;;;;;5109799;27;20216;-46
2023/03/20 08:50:26;;;;;;;12.60;3.33;;;19.60;57.60;;;;;;5095740;27;20219;-46
2023/03/20 08:52:54;;;;;;;8.27;3.20;;;19.60;58.00;;;;;;5093250;28;20189;-46
2023/03/20 08:55:26;;;;;;;11.60;3.10;;;19.60;58.00;;;;;;5103726;27;20235;-46
2023/03/20 08:57:57;;;;;;;7.73;2.30;;;19.60;57.80;;;;;;5108737;28;20200;-46
2023/03/20 09:00:34;;;;;;;6.60;2.90;;;19.60;57.80;;;;;;5111255;28;20195;-46
2023/03/20 09:03:02;;;;;;;5.40;2.20;;;19.60;58.00;;;;;;5108929;28;20208;-47
2023/03/20 09:05:35;;;;;;;4.73;2.73;;;19.70;57.80;;;;;;5112936;27;20204;-46
2023/03/20 09:08:04;;;;;;;6.17;2.23;;;19.70;58.00;;;;;;5093688;28;20204;-46
2023/03/20 09:10:34;;;;;;;5.27;2.37;;;19.70;58.00;;;;;;5113435;27;20196;-47
2023/03/20 09:13:03;;;;;;;6.53;2.23;;;19.70;58.10;;;;;;5111775;28;20338;-46
2023/03/20 09:15:57;;;;;;;5.53;2.73;;;19.70;57.90;;;;;;5105007;27;20211;-46
2023/03/20 09:18:34;;;;;;;7.27;2.50;;;19.70;57.80;;;;;;5096569;27;20207;-46
2023/03/20 09:21:03;;;;;;;8.97;2.20;;;19.70;57.70;;;;;;5111327;28;20196;-46
2023/03/20 09:23:31;;;;;;;6.03;2.60;;;19.70;57.60;;;;;;5108900;28;20192;-47
2023/03/20 09:26:00;;;;;;;4.73;2.43;;;19.80;57.70;;;;;;5078249;28;20292;-47
2023/03/20 09:28:32;;;;;;;4.43;2.20;;;19.80;57.60;;;;;;5073800;28;20225;-47
2023/03/20 09:31:08;;;;;;;4.13;2.63;;;19.80;57.10;;;;;;5103945;27;20228;-47
2023/03/20 09:33:39;;;;;;;6.40;2.93;;;19.90;56.60;;;;;;5111316;27;20617;-47
2023/03/20 09:36:17;;;;;;;6.57;2.33;;;19.90;56.60;;;;;;5104438;28;20184;-47
2023/03/20 09:38:46;;;;;;;4.73;2.50;;;20.00;56.60;;;;;;5101242;27;20212;-47
2023/03/20 09:41:26;;;;;;;3.23;2.00;;;20.00;56.80;;;;;;5093476;27;20185;-46
2023/03/20 09:44:20;;;;;;;6.93;2.80;;;20.00;56.20;;;;;;5090012;28;20520;-47
2023/03/20 09:47:13;;;;;;;5.63;2.43;;;20.10;56.50;;;;;;5104207;27;20675;-47
2023/03/20 09:50:05;;;;;;;5.97;2.80;;;20.10;56.10;;;;;;5102292;28;20185;-46
2023/03/20 09:52:51;;;;;;;6.23;2.67;;;20.10;55.60;;;;;;5092251;28;20196;-46
2023/03/20 09:55:36;;;;;;;3.33;2.07;;;20.10;55.50;;;;;;5109851;27;20199;-46
2023/03/20 09:58:32;;;;;;;3.27;2.33;;;20.10;55.50;;;;;;5093467;28;20203;-46
2023/03/20 10:01:07;;;;;;;5.20;2.00;;;20.10;55.60;;;;;;5096709;27;20239;-46
2023/03/20 10:03:52;;;;;;;5.50;2.00;;;20.20;56.30;;;;;;5104977;28;20207;-47
2023/03/20 10:06:21;;;;;;;3.30;1.93;;;20.20;55.60;;;;;;5087766;28;20212;-47
2023/03/20 10:08:54;;;;;;;5.17;1.90;;;20.20;55.90;;;;;;5109965;28;20291;-47
2023/03/20 10:11:58;;;;;;;5.87;2.10;;;20.30;55.90;;;;;;5109606;27;20192;-47
2023/03/20 10:15:18;;;;;;;3.43;1.87;;;20.30;55.90;;;;;;5102981;28;20212;-46
2023/03/20 10:18:21;;;;;;;3.03;1.57;;;20.30;56.00;;;;;;5102714;27;20200;-47
2023/03/20 10:21:03;;;;;;;4.17;1.90;;;20.30;55.50;;;;;;5103027;28;20748;-47
2023/03/20 10:23:55;;;;;;;5.23;1.70;;;20.40;55.20;;;;;;5083180;28;20566;-47
2023/03/20 10:26:25;;;;;;;4.83;1.57;;;20.40;55.00;;;;;;5099770;27;20658;-46
2023/03/20 10:29:07;;;;;;;3.40;1.70;;;20.50;54.90;;;;;;5084944;28;20590;-47
2023/03/20 10:32:03;;;;;;;2.33;1.50;;;20.50;55.00;;;;;;5103931;27;20227;-47
2023/03/20 10:34:42;;;;;;;2.30;1.63;;;20.60;54.80;;;;;;5096825;28;20419;-47
2023/03/20 10:38:06;;;;;;;4.97;1.70;;;20.60;54.50;;;;;;5109510;27;20200;-47
2023/03/20 10:40:56;;;;;;;3.57;1.33;;;20.60;54.70;;;;;;5085502;27;20231;-46
2023/03/20 10:43:34;;;;;;;2.30;1.50;;;20.60;54.40;;;;;;5108507;28;20189;-45
2023/03/20 10:46:35;;;;;;;3.57;1.60;;;20.60;54.50;;;;;;5111869;27;20681;-45
2023/03/20 10:49:33;;;;;;;4.27;1.90;;;20.70;54.30;;;;;;5107146;28;20614;-45
2023/03/20 10:52:08;;;;;;;2.00;1.50;;;20.70;54.20;;;;;;5105604;27;20855;-46
2023/03/20 10:55:13;;;;;;;3.90;1.70;;;20.70;54.20;;;;;;5096676;28;20196;-46
2023/03/20 10:57:46;;;;;;;2.63;1.60;;;20.70;54.20;;;;;;5072115;28;20269;-47
2023/03/20 11:00:27;;;;;;;3.80;1.83;;;20.80;54.20;;;;;;5082223;27;20282;-46
2023/03/20 11:02:58;;;;;;;2.47;1.60;;;20.80;54.40;;;;;;5109114;27;20205;-46
2023/03/20 11:05:35;;;;;;;3.60;1.47;;;20.80;54.00;;;;;;5105216;28;20195;-47
2023/03/20 11:08:11;;;;;;;2.13;1.50;;;20.80;54.40;;;;;;5088407;28;20223;-47
2023/03/20 11:10:41;;;;;;;2.50;1.40;;;20.90;54.10;;;;;;5090836;28;20196;-46
2023/03/20 11:13:35;;;;;;;5.40;2.10;;;20.90;53.70;;;;;;5091630;28;20207;-47
2023/03/20 11:16:30;;;;;;;2.83;1.40;;;21.00;53.60;;;;;;5100061;27;20184;-48
2023/03/20 11:19:09;;;;;;;2.20;1.60;;;21.00;53.60;;;;;;5102051;28;20192;-47
2023/03/20 11:21:48;;;;;;;5.17;1.83;;;21.00;53.90;;;;;;5105839;28;20188;-47
2023/03/20 11:24:35;;;;;;;2.13;1.80;;;21.00;53.70;;;;;;5072208;28;20208;-47
2023/03/20 11:27:19;;;;;;;2.20;1.50;;;21.00;52.60;;;;;;5111681;27;20227;-46
2023/03/20 11:29:51;;;;;;;3.80;1.60;;;20.90;52.70;;;;;;5091292;28;20241;-46
2023/03/20 11:32:40;;;;;;;2.70;1.23;;;20.80;53.20;;;;;;5089584;28;20192;-46
2023/03/20 11:35:34;;;;;;;3.23;1.60;;;20.70;53.40;;;;;;5098723;28;20192;-46
2023/03/20 11:38:46;;;;;;;3.73;1.60;;;20.60;53.40;;;;;;5100660;28;20204;-46
2023/03/20 11:41:29;;;;;;;2.60;1.63;;;20.50;53.70;;;;;;5105784;28;20196;-46
2023/03/20 11:44:00;;;;;;;3.27;1.40;;;20.50;53.90;;;;;;5086170;28;20204;-46
2023/03/20 11:46:31;;;;;;;2.73;1.50;;;20.40;53.90;;;;;;5112132;27;20203;-46
2023/03/20 11:49:05;;;;;;;2.13;1.30;;;20.40;54.00;;;;;;5060743;28;20209;-46
2023/03/20 11:51:39;;;;;;;2.13;1.30;;;20.30;54.00;;;;;;5073603;28;20581;-46
2023/03/20 11:54:21;;;;;;;3.47;1.30;;;20.30;54.00;;;;;;5099336;28;20200;-46
2023/03/20 11:56:57;;;;;;;3.00;1.50;;;20.30;53.90;;;;;;5102467;28;20289;-46
2023/03/20 11:59:38;;;;;;;2.53;1.07;;;20.20;54.10;;;;;;5078013;28;20191;-46
2023/03/20 12:02:21;;;;;;;2.97;1.30;;;20.20;54.10;;;;;;5067627;28;20204;-47
2023/03/20 12:04:51;;;;;;;2.23;1.37;;;20.30;54.00;;;;;;5107858;28;20203;-46
2023/03/20 12:07:36;;;;;;;3.40;1.50;;;20.30;53.70;;;;;;5106610;28;20227;-46
2023/03/20 12:10:18;;;;;;;3.43;1.87;;;20.40;53.80;;;;;;5090079;28;20501;-46
2023/03/20 12:13:05;;;;;;;5.33;1.50;;;20.40;53.40;;;;;;5108009;28;20221;-47
2023/03/20 12:16:04;;;;;;;2.97;1.53;;;20.50;53.60;;;;;;5113514;27;20216;-47
2023/03/20 12:19:02;;;;;;;3.90;2.03;;;20.60;53.10;;;;;;5111255;28;20661;-46
2023/03/20 12:21:43;;;;;;;3.33;1.57;;;20.60;53.00;;;;;;5106846;28;20210;-46
2023/03/20 12:25:00;;;;;;;3.63;1.40;;;20.60;52.90;;;;;;5108714;28;20535;-46
2023/03/20 12:27:47;;;;;;;4.93;1.50;;;20.60;53.00;;;;;;5107540;27;20262;-46
2023/03/20 12:30:39;;;;;;;3.30;1.60;;;20.70;52.80;;;;;;5112084;27;20253;-46
2023/03/20 12:33:22;;;;;;;3.03;1.53;;;20.80;52.80;;;;;;5091876;28;20735;-46
2023/03/20 12:36:00;;;;;;;3.03;1.50;;;20.80;52.90;;;;;;5087628;28;20556;-47
2023/03/20 12:38:33;;;;;;;2.67;1.23;;;20.80;52.90;;;;;;5092136;28;20218;-47
2023/03/20 12:41:14;;;;;;;4.13;1.80;;;20.90;52.80;;;;;;5093772;28;20215;-47
2023/03/20 12:44:17;;;;;;;1.93;1.20;;;20.90;52.50;;;;;;5082666;28;20265;-47
2023/03/20 12:47:40;;;;;;;3.17;1.47;;;20.90;52.50;;;;;;5100728;28;20195;-47
2023/03/20 12:50:37;;;;;;;3.67;1.50;;;21.00;52.60;;;;;;5045467;28;20249;-47
2023/03/20 12:53:50;;;;;;;2.83;1.17;;;21.00;52.70;;;;;;5054008;28;20205;-47
2023/03/20 12:56:49;;;;;;;3.17;1.67;;;20.90;52.20;;;;;;5030976;28;20195;-46
2023/03/20 12:59:37;;;;;;;2.43;1.33;;;21.00;52.60;;;;;;5047429;28;20221;-46
2023/03/20 13:02:36;;;;;;;3.90;1.40;;;21.00;52.80;;;;;;5037546;28;20420;-46
2023/03/20 13:05:24;;;;;;;4.77;1.60;;;21.10;52.70;;;;;;5048789;28;20317;-46
2023/03/20 13:08:28;;;;;;;4.70;1.63;;;21.10;52.40;;;;;;5043453;28;20228;-46
2023/03/20 13:11:41;;;;;;;5.60;1.43;;;21.10;52.80;;;;;;5032310;28;20206;-46
2023/03/20 13:14:26;;;;;;;2.40;1.37;;;21.10;52.60;;;;;;5090941;27;20224;-46
2023/03/20 13:17:27;;;;;;;2.53;1.40;;;21.10;52.60;;;;;;5109000;28;20629;-46
2023/03/20 13:20:35;;;;;;;3.97;1.53;;;21.10;52.50;;;;;;5008917;28;20195;-46
2023/03/20 13:23:30;;;;;;;3.27;1.50;;;21.10;52.60;;;;;;5111111;27;20196;-47
2023/03/20 13:26:22;;;;;;;1.80;1.20;;;21.20;52.90;;;;;;5082666;28;20200;-46
2023/03/20 13:29:04;;;;;;;3.87;1.40;;;21.20;52.60;;;;;;5103432;27;20233;-47
2023/03/20 13:32:10;;;;;;;7.57;1.50;;;21.30;52.70;;;;;;5107473;27;20198;-46
2023/03/20 13:35:06;;;;;;;2.87;1.33;;;21.30;52.20;;;;;;5126615;27;20200;-46
2023/03/20 13:37:43;;;;;;;3.87;1.47;;;21.40;52.30;;;;;;5110864;28;20204;-46
2023/03/20 13:40:31;;;;;;;5.43;1.53;;;21.30;52.30;;;;;;5095723;28;20200;-46
2023/03/20 13:43:25;;;;;;;2.67;1.30;;;21.40;52.40;;;;;;5110806;28;20568;-47
2023/03/20 13:46:27;;;;;;;4.23;1.50;;;21.40;52.20;;;;;;5115702;27;20207;-47
2023/03/20 13:49:01;;;;;;;2.83;1.57;;;21.40;52.40;;;;;;5111294;27;20238;-46